createdAt,value
2018-02-09T00:02:12.483Z,53.70
2018-02-09T00:04:52.895Z,54.00
2018-02-09T00:07:34.418Z,53.80
2018-02-09T00:10:16.844Z,54.60
2018-02-09T00:12:57.360Z,55.30
2018-02-09T00:15:35.854Z,55.10
2018-02-09T00:18:14.231Z,55.60
2018-02-09T00:20:53.780Z,55.70
2018-02-09T00:23:32.403Z,55.90
2018-02-09T00:26:11.910Z,56.30
2018-02-09T00:28:51.301Z,57.00
2018-02-09T00:31:30.737Z,57.80
2018-02-09T00:34:10.076Z,57.10
2018-02-09T00:36:49.431Z,57.90
2018-02-09T00:39:31.098Z,58.80
2018-02-09T00:42:09.549Z,58.80
2018-02-09T00:44:50.175Z,59.80
2018-02-09T00:47:30.697Z,60.20
2018-02-09T00:50:10.237Z,60.50
2018-02-09T00:52:48.671Z,60.60
2018-02-09T00:55:28.401Z,60.60
2018-02-09T00:58:07.976Z,61.40
2018-02-09T01:00:47.452Z,61.00
2018-02-09T01:03:26.857Z,61.40
2018-02-09T01:06:05.463Z,62.10
2018-02-09T01:08:45.257Z,62.20
2018-02-09T01:11:25.066Z,62.50
2018-02-09T01:14:04.461Z,62.80
2018-02-09T01:16:43.911Z,63.50
2018-02-09T01:19:23.334Z,63.60
2018-02-09T01:22:01.871Z,63.20
2018-02-09T01:24:41.196Z,63.50
2018-02-09T01:27:19.665Z,63.80
2018-02-09T01:30:00.357Z,64.20
2018-02-09T01:32:40.937Z,64.30
2018-02-09T01:35:20.369Z,64.20
2018-02-09T01:37:59.935Z,64.90
2018-02-09T01:40:42.403Z,64.90
2018-02-09T01:43:21.868Z,65.00
2018-02-09T01:46:01.336Z,65.30
2018-02-09T01:48:40.574Z,65.60
2018-02-09T01:51:19.959Z,66.30
2018-02-09T01:54:00.564Z,66.70
2018-02-09T01:56:39.070Z,67.00
2018-02-09T01:59:17.489Z,67.40
2018-02-09T02:01:57.048Z,67.50
2018-02-09T02:04:36.562Z,67.90
2018-02-09T02:07:17.348Z,68.30
2018-02-09T02:10:00.005Z,68.60
2018-02-09T02:12:41.860Z,68.80
2018-02-09T02:15:22.537Z,69.30
2018-02-09T02:18:02.025Z,69.50
2018-02-09T02:20:40.666Z,69.80
2018-02-09T02:23:19.249Z,70.30
2018-02-09T02:25:58.781Z,70.80
2018-02-09T02:28:37.371Z,70.70
2018-02-09T02:31:20.843Z,71.50
2018-02-09T02:34:00.256Z,71.40
2018-02-09T02:36:40.802Z,72.10
2018-02-09T02:39:20.336Z,72.20
2018-02-09T02:41:59.973Z,72.90
2018-02-09T02:44:39.390Z,72.40
2018-02-09T02:47:17.913Z,72.60
2018-02-09T02:49:57.269Z,73.20
2018-02-09T02:52:35.579Z,72.60
2018-02-09T02:55:14.878Z,72.60
2018-02-09T02:57:54.451Z,72.70
2018-02-09T03:00:33.949Z,73.00
2018-02-09T03:03:13.476Z,73.10
2018-02-09T03:05:51.875Z,73.30
2018-02-09T03:08:33.327Z,73.60
2018-02-09T03:11:12.635Z,73.70
2018-02-09T03:13:54.731Z,73.70
2018-02-09T03:16:35.503Z,75.50
2018-02-09T03:19:13.991Z,75.90
2018-02-09T03:21:52.520Z,74.90
2018-02-09T03:24:32.152Z,75.20
2018-02-09T03:27:10.600Z,75.50
2018-02-09T03:29:49.997Z,75.50
2018-02-09T03:32:29.538Z,76.00
2018-02-09T03:35:08.577Z,75.80
2018-02-09T03:37:48.442Z,75.60
2018-02-09T03:40:27.090Z,75.60
2018-02-09T03:43:05.566Z,75.20
2018-02-09T03:45:45.205Z,75.00
2018-02-09T03:48:24.702Z,75.20
2018-02-09T03:51:03.074Z,75.20
2018-02-09T03:53:42.661Z,75.00
2018-02-09T03:56:20.934Z,75.10
2018-02-09T03:59:01.585Z,75.30
2018-02-09T04:01:41.204Z,75.20
2018-02-09T04:04:19.462Z,75.30
2018-02-09T04:06:59.070Z,75.00
2018-02-09T04:09:39.513Z,75.00
2018-02-09T04:12:19.889Z,74.80
2018-02-09T04:15:01.395Z,74.70
2018-02-09T04:17:40.969Z,74.60
2018-02-09T04:20:20.361Z,74.80
2018-02-09T04:22:59.796Z,74.80
2018-02-09T04:25:39.342Z,74.90
2018-02-09T04:28:18.932Z,75.10
2018-02-09T04:30:57.294Z,75.40
2018-02-09T04:33:37.950Z,75.20
2018-02-09T04:36:16.671Z,75.30
2018-02-09T04:38:57.095Z,75.70
2018-02-09T04:41:35.584Z,75.60
2018-02-09T04:44:15.036Z,75.60
2018-02-09T04:46:53.307Z,75.60
2018-02-09T04:49:33.121Z,75.40
2018-02-09T04:52:11.573Z,75.60
2018-02-09T04:54:50.232Z,75.70
2018-02-09T04:57:29.764Z,75.40
2018-02-09T05:00:09.431Z,75.40
2018-02-09T05:02:47.765Z,75.90
2018-02-09T05:05:27.172Z,75.80
2018-02-09T05:08:07.679Z,75.50
2018-02-09T05:10:48.164Z,75.90
2018-02-09T05:13:27.682Z,75.60
2018-02-09T05:16:06.045Z,75.70
2018-02-09T05:18:44.845Z,76.00
2018-02-09T05:21:24.313Z,76.00
2018-02-09T05:24:03.969Z,76.30
2018-02-09T05:26:43.564Z,76.00
2018-02-09T05:29:23.280Z,75.80
2018-02-09T05:32:02.894Z,75.80
2018-02-09T05:34:42.343Z,75.90
2018-02-09T05:37:20.952Z,75.90
2018-02-09T05:40:00.553Z,75.90
2018-02-09T05:42:39.011Z,76.30
2018-02-09T05:45:17.695Z,76.00
2018-02-09T05:47:56.245Z,76.20
2018-02-09T05:50:35.776Z,76.20
2018-02-09T05:53:14.833Z,75.80
2018-02-09T05:55:54.882Z,75.90
2018-02-09T05:58:35.356Z,75.80
2018-02-09T06:01:16.903Z,75.80
2018-02-09T06:03:56.473Z,75.90
2018-02-09T06:06:37.986Z,76.40
2018-02-09T06:09:17.502Z,76.20
2018-02-09T06:11:57.913Z,76.40
2018-02-09T06:14:38.166Z,76.30
2018-02-09T06:17:16.713Z,76.30
2018-02-09T06:19:58.130Z,76.10
2018-02-09T06:22:37.643Z,75.70
2018-02-09T06:25:17.178Z,75.60
2018-02-09T06:27:56.645Z,75.40
2018-02-09T06:30:36.253Z,75.20
2018-02-09T06:33:15.822Z,75.40
2018-02-09T06:35:54.338Z,75.10
2018-02-09T06:38:33.903Z,75.10
2018-02-09T06:41:13.597Z,75.80
2018-02-09T06:43:52.106Z,75.60
2018-02-09T06:46:30.655Z,75.30
2018-02-09T06:49:10.200Z,75.10
2018-02-09T06:51:48.782Z,74.40
2018-02-09T06:54:28.282Z,74.50
2018-02-09T06:57:06.670Z,74.50
2018-02-09T06:59:45.041Z,74.50
2018-02-09T07:02:24.526Z,74.60
2018-02-09T07:05:05.149Z,74.40
2018-02-09T07:07:44.751Z,74.20
2018-02-09T07:10:24.263Z,74.20
2018-02-09T07:13:05.540Z,73.90
2018-02-09T07:15:45.005Z,73.30
2018-02-09T07:18:23.501Z,73.30
2018-02-09T07:21:02.033Z,73.30
2018-02-09T07:23:41.590Z,73.30
2018-02-09T07:26:21.314Z,73.40
2018-02-09T07:28:59.616Z,73.40
2018-02-09T07:31:38.197Z,73.80
2018-02-09T07:34:17.563Z,74.00
2018-02-09T07:36:56.956Z,74.00
2018-02-09T07:39:36.495Z,74.00
2018-02-09T07:42:15.409Z,73.80
2018-02-09T07:44:54.523Z,74.10
2018-02-09T07:47:33.998Z,73.80
2018-02-09T07:50:14.392Z,74.50
2018-02-09T07:52:53.865Z,74.50
2018-02-09T07:55:33.407Z,74.90
2018-02-09T07:58:12.017Z,75.90
2018-02-09T08:00:51.601Z,76.60
2018-02-09T08:03:31.104Z,77.80
2018-02-09T08:06:10.727Z,79.00
2018-02-09T08:08:51.238Z,79.60
2018-02-09T08:11:32.786Z,81.00
2018-02-09T08:14:12.452Z,80.90
2018-02-09T08:16:52.056Z,82.00
2018-02-09T08:19:32.688Z,82.10
2018-02-09T08:22:11.199Z,82.10
2018-02-09T08:24:51.607Z,82.10
2018-02-09T08:27:31.107Z,82.10
2018-02-09T08:30:10.784Z,81.80
2018-02-09T08:32:49.096Z,81.40
2018-02-09T08:35:28.756Z,81.00
2018-02-09T08:38:11.026Z,80.30
2018-02-09T08:40:49.704Z,79.90
2018-02-09T08:43:29.163Z,79.60
2018-02-09T08:46:07.797Z,79.50
2018-02-09T08:48:47.304Z,79.00
2018-02-09T08:51:26.720Z,78.70
2018-02-09T08:54:05.207Z,78.60
2018-02-09T08:56:43.708Z,78.00
2018-02-09T08:59:23.167Z,78.40
2018-02-09T09:02:01.727Z,78.10
2018-02-09T09:04:41.070Z,77.40
2018-02-09T09:07:20.517Z,77.10
2018-02-09T09:09:59.044Z,76.90
2018-02-09T09:12:40.725Z,75.40
2018-02-09T09:15:23.196Z,75.50
2018-02-09T09:18:03.580Z,75.90
2018-02-09T09:20:43.091Z,75.40
2018-02-09T09:23:22.483Z,75.50
2018-02-09T09:26:01.856Z,75.40
2018-02-09T09:28:40.499Z,73.00
2018-02-09T09:31:19.983Z,73.10
2018-02-09T09:34:01.385Z,73.10
2018-02-09T09:36:43.951Z,71.90
2018-02-09T09:39:23.345Z,72.00
2018-02-09T09:42:04.800Z,71.50
2018-02-09T09:44:44.273Z,71.50
2018-02-09T09:47:23.663Z,69.70
2018-02-09T09:50:02.044Z,70.80
2018-02-09T09:52:40.548Z,70.50
2018-02-09T09:55:20.031Z,70.40
2018-02-09T09:57:58.570Z,70.00
2018-02-09T10:00:37.122Z,70.30
2018-02-09T10:03:15.719Z,70.00
2018-02-09T10:05:56.056Z,69.90
2018-02-09T10:08:36.509Z,69.70
2018-02-09T10:11:16.120Z,69.60
2018-02-09T10:13:57.624Z,69.20
2018-02-09T10:16:38.091Z,69.10
2018-02-09T10:19:17.665Z,69.70
2018-02-09T10:21:58.217Z,68.70
2018-02-09T10:24:38.625Z,68.70
2018-02-09T10:27:18.110Z,69.00
2018-02-09T10:29:57.462Z,68.60
2018-02-09T10:32:37.009Z,68.60
2018-02-09T10:35:16.521Z,68.50
2018-02-09T10:37:56.132Z,68.30
2018-02-09T10:40:35.554Z,67.70
2018-02-09T10:43:15.990Z,67.00
2018-02-09T10:45:56.462Z,65.70
2018-02-09T10:48:35.048Z,65.90
2018-02-09T10:51:14.583Z,66.10
2018-02-09T10:53:56.169Z,66.00
2018-02-09T10:56:35.495Z,66.00
2018-02-09T10:59:14.991Z,65.30
2018-02-09T11:01:53.481Z,66.20
2018-02-09T11:04:31.919Z,65.40
2018-02-09T11:07:12.344Z,65.00
2018-02-09T11:09:50.778Z,65.50
2018-02-09T11:12:30.328Z,65.30
2018-02-09T11:15:08.395Z,64.50
2018-02-09T11:17:47.788Z,64.70
2018-02-09T11:20:25.199Z,62.70
2018-02-09T11:23:03.559Z,63.60
2018-02-09T11:25:42.297Z,63.40
2018-02-09T11:28:20.689Z,63.80
2018-02-09T11:31:00.215Z,62.90
2018-02-09T11:33:38.635Z,62.20
2018-02-09T11:36:17.164Z,61.60
2018-02-09T11:38:55.876Z,60.80
2018-02-09T11:41:34.223Z,60.00
2018-02-09T11:44:12.659Z,60.20
2018-02-09T11:46:51.162Z,60.20
2018-02-09T11:49:29.659Z,60.40
2018-02-09T11:52:08.168Z,60.20
2018-02-09T11:54:46.703Z,60.30
2018-02-09T12:00:11.210Z,60.10
2018-02-09T12:02:49.900Z,61.60
2018-02-09T12:05:28.424Z,61.00
2018-02-09T12:08:07.176Z,60.90
2018-02-09T12:10:45.675Z,60.80
2018-02-09T12:13:24.268Z,61.20
2018-02-09T12:16:04.684Z,61.40
2018-02-09T12:18:46.071Z,62.70
2018-02-09T12:21:24.860Z,63.30
2018-02-09T12:24:03.403Z,63.00
2018-02-09T12:26:42.789Z,63.70
2018-02-09T12:29:21.272Z,64.00
2018-02-09T12:32:00.586Z,64.60
2018-02-09T12:34:39.020Z,64.60
2018-02-09T12:37:18.311Z,63.80
2018-02-09T12:39:56.827Z,63.80
2018-02-09T12:42:35.489Z,63.70
2018-02-09T12:45:14.094Z,63.30
2018-02-09T12:47:52.478Z,63.40
2018-02-09T12:50:31.121Z,63.60
2018-02-09T12:53:10.470Z,63.80
2018-02-09T12:55:55.656Z,64.60
2018-02-09T12:58:34.576Z,64.60
2018-02-09T13:01:14.126Z,65.20
2018-02-09T13:03:52.539Z,65.80
2018-02-09T13:06:31.195Z,66.70
2018-02-09T13:09:10.621Z,67.80
2018-02-09T13:11:49.015Z,68.20
2018-02-09T13:14:39.664Z,68.40
2018-02-09T13:17:19.194Z,68.40
2018-02-09T13:20:00.846Z,67.90
2018-02-09T13:22:52.440Z,68.00
2018-02-09T13:25:32.124Z,68.60
2018-02-09T13:28:11.884Z,68.70
2018-02-09T13:30:52.801Z,68.30
2018-02-09T13:33:38.968Z,68.20
2018-02-09T13:36:20.560Z,68.30
2018-02-09T13:38:59.030Z,68.90
2018-02-09T13:41:38.538Z,68.90
2018-02-09T13:44:17.092Z,68.50
2018-02-09T13:46:55.566Z,68.40
2018-02-09T13:49:35.949Z,68.10
2018-02-09T13:52:14.248Z,67.80
2018-02-09T13:54:52.635Z,66.90
2018-02-09T13:57:32.318Z,67.00
2018-02-09T14:00:10.773Z,66.90
2018-02-09T14:02:51.334Z,65.80
2018-02-09T14:05:29.910Z,63.50
2018-02-09T14:08:08.275Z,64.50
2018-02-09T14:10:47.783Z,65.10
2018-02-09T14:13:26.081Z,65.00
2018-02-09T14:16:04.497Z,65.80
2018-02-09T14:18:43.946Z,66.40
2018-02-09T14:21:22.449Z,65.80
2018-02-09T14:24:01.055Z,66.40
2018-02-09T14:26:40.492Z,66.60
2018-02-09T14:29:19.980Z,66.10
2018-02-09T14:32:00.626Z,66.50
2018-02-09T14:34:39.089Z,66.90
2018-02-09T14:37:17.479Z,65.30
2018-02-09T14:39:57.030Z,67.30
2018-02-09T14:42:36.711Z,67.10
2018-02-09T14:45:17.336Z,66.90
2018-02-09T14:47:56.870Z,67.60
2018-02-09T14:50:36.193Z,67.60
2018-02-09T14:53:16.726Z,68.10
2018-02-09T14:55:56.596Z,68.30
2018-02-09T14:58:36.166Z,65.60
2018-02-09T15:01:16.600Z,63.90
2018-02-09T15:03:56.195Z,64.00
2018-02-09T15:06:34.605Z,63.70
2018-02-09T15:09:13.144Z,63.70
2018-02-09T15:11:53.721Z,64.50
2018-02-09T15:14:32.113Z,63.50
2018-02-09T15:17:10.588Z,63.20
2018-02-09T15:19:49.018Z,62.20
2018-02-09T15:22:28.622Z,61.80
2018-02-09T15:25:06.258Z,62.70
2018-02-09T15:27:46.928Z,62.00
2018-02-09T15:30:29.709Z,62.30
2018-02-09T15:33:10.817Z,61.40
2018-02-09T15:35:49.315Z,61.50
2018-02-09T15:38:27.833Z,61.80
2018-02-09T15:41:07.360Z,62.90
2018-02-09T15:43:48.760Z,62.60
2018-02-09T15:46:28.280Z,60.50
2018-02-09T15:49:07.854Z,60.00
2018-02-09T15:51:47.374Z,59.90
2018-02-09T15:54:25.937Z,60.00
2018-02-09T15:57:04.548Z,58.80
2018-02-09T15:59:42.925Z,60.00
2018-02-09T16:02:21.392Z,61.10
2018-02-09T16:05:00.070Z,64.30
2018-02-09T16:07:38.634Z,65.20
2018-02-09T16:10:17.332Z,66.00
2018-02-09T16:12:55.736Z,61.70
2018-02-09T16:15:34.435Z,64.90
2018-02-09T16:18:13.035Z,64.80
2018-02-09T16:20:52.394Z,62.20
2018-02-09T16:23:31.005Z,62.20
2018-02-09T16:26:10.626Z,59.00
2018-02-09T16:28:49.128Z,55.80
2018-02-09T16:31:27.586Z,59.80
2018-02-09T16:34:05.836Z,55.10
2018-02-09T16:36:47.269Z,59.50
2018-02-09T16:39:25.721Z,59.20
2018-02-09T16:42:04.303Z,60.80
2018-02-09T16:44:44.841Z,54.70
2018-02-09T16:47:24.652Z,56.00
2018-02-09T16:50:03.640Z,54.20
2018-02-09T16:52:43.185Z,53.10
2018-02-09T16:55:22.703Z,48.70
2018-02-09T16:58:01.280Z,50.30
2018-02-09T17:00:40.674Z,50.60
2018-02-09T17:03:19.112Z,50.40
2018-02-09T17:05:57.809Z,50.60
2018-02-09T17:08:36.462Z,44.20
2018-02-09T17:11:14.847Z,45.60
2018-02-09T17:13:53.445Z,43.90
2018-02-09T17:16:31.833Z,43.70
2018-02-09T17:19:11.711Z,42.10
2018-02-09T17:21:49.805Z,44.10
2018-02-09T17:24:28.235Z,44.60
2018-02-09T17:27:05.726Z,42.80
2018-02-09T17:32:43.460Z,43.00
2018-02-09T17:35:21.066Z,42.90
2018-02-09T17:37:59.618Z,42.10
2018-02-09T17:40:38.026Z,41.10
2018-02-09T17:43:16.355Z,40.40
2018-02-09T17:45:54.935Z,39.00
2018-02-09T17:48:35.415Z,41.40
2018-02-09T17:51:14.156Z,41.40
2018-02-09T17:53:52.413Z,39.60
2018-02-09T17:56:32.103Z,41.20
2018-02-09T17:59:10.575Z,41.20
2018-02-09T18:01:50.083Z,35.00
2018-02-09T18:04:28.560Z,34.50
2018-02-09T18:07:09.424Z,33.70
2018-02-09T18:09:47.578Z,32.10
2018-02-09T18:12:26.233Z,35.10
2018-02-09T18:15:05.668Z,34.20
2018-02-09T18:17:44.068Z,34.10
2018-02-09T18:20:22.500Z,34.80
2018-02-09T18:23:02.050Z,36.70
2018-02-09T18:25:40.548Z,36.90
2018-02-09T18:28:19.066Z,36.30
2018-02-09T18:30:58.483Z,29.50
2018-02-09T18:33:36.916Z,29.60
2018-02-09T18:36:16.407Z,30.90
2018-02-09T18:38:57.547Z,31.40
2018-02-09T18:41:37.449Z,30.40
2018-02-09T18:44:16.007Z,30.00
2018-02-09T18:46:55.346Z,32.60
2018-02-09T18:49:33.764Z,30.70
2018-02-09T18:52:14.216Z,31.80
2018-02-09T18:54:54.039Z,30.70
2018-02-09T18:57:34.066Z,34.40
2018-02-09T19:00:12.721Z,27.90
2018-02-09T19:02:51.114Z,29.40
2018-02-09T19:05:30.566Z,27.30
2018-02-09T19:08:09.097Z,30.40
2018-02-09T19:10:48.633Z,27.30
2018-02-09T19:13:30.300Z,25.90
2018-02-09T19:16:10.891Z,26.20
2018-02-09T19:18:51.355Z,25.90
2018-02-09T19:21:32.896Z,26.90
2018-02-09T19:24:11.652Z,26.00
2018-02-09T19:26:49.841Z,27.90
2018-02-09T19:29:28.831Z,27.90
2018-02-09T19:32:09.407Z,27.70
2018-02-09T19:34:47.867Z,29.90
2018-02-09T19:37:26.262Z,27.20
2018-02-09T19:40:05.791Z,28.00
2018-02-09T19:42:45.228Z,27.40
2018-02-09T19:45:26.414Z,26.70
2018-02-09T19:48:05.436Z,26.20
2018-02-09T19:50:44.024Z,26.10
2018-02-09T19:53:22.724Z,26.10
2018-02-09T19:56:03.235Z,27.20
2018-02-09T19:58:42.797Z,30.10
2018-02-09T20:01:24.299Z,29.70
2018-02-09T20:04:02.707Z,29.70
2018-02-09T20:06:41.306Z,29.20
2018-02-09T20:09:19.881Z,27.40
2018-02-09T20:11:58.473Z,28.60
2018-02-09T20:14:39.032Z,30.20
2018-02-09T20:17:17.416Z,31.30
2018-02-09T20:19:55.970Z,29.00
2018-02-09T20:22:34.885Z,27.40
2018-02-09T20:25:13.293Z,31.20
2018-02-09T20:27:51.889Z,29.90
2018-02-09T20:30:30.656Z,32.90
2018-02-09T20:33:09.761Z,31.10
2018-02-09T20:35:49.648Z,35.30
2018-02-09T20:38:27.316Z,34.40
2018-02-09T20:41:05.756Z,33.50
2018-02-09T20:43:45.543Z,29.50
2018-02-09T20:46:26.306Z,28.40
2018-02-09T20:49:05.925Z,32.60
2018-02-09T20:51:46.517Z,32.50
2018-02-09T20:54:25.379Z,29.80
2018-02-09T20:57:03.978Z,31.60
2018-02-09T20:59:42.621Z,33.50
2018-02-09T21:02:21.152Z,33.60
2018-02-09T21:04:59.734Z,33.60
2018-02-09T21:07:38.142Z,30.50
2018-02-09T21:10:16.685Z,28.60
2018-02-09T21:12:55.234Z,29.00
2018-02-09T21:15:34.072Z,30.50
2018-02-09T21:18:13.676Z,29.80
2018-02-09T21:20:52.823Z,29.70
2018-02-09T21:23:31.502Z,31.90
2018-02-09T21:26:10.043Z,31.20
2018-02-09T21:28:49.191Z,30.90
2018-02-09T21:31:28.128Z,31.60
2018-02-09T21:34:07.606Z,30.10
2018-02-09T21:36:45.102Z,30.00
2018-02-09T21:39:24.751Z,27.10
2018-02-09T21:42:04.133Z,27.00
2018-02-09T21:44:42.762Z,30.10
2018-02-09T21:47:22.282Z,29.10
2018-02-09T21:50:01.849Z,28.10
2018-02-09T21:52:40.362Z,27.50
2018-02-09T21:55:18.849Z,29.80
2018-02-09T21:57:58.360Z,29.80
2018-02-09T22:00:36.702Z,29.80
2018-02-09T22:03:15.128Z,26.90
2018-02-09T22:05:53.686Z,27.80
2018-02-09T22:08:32.407Z,29.40
2018-02-09T22:11:10.903Z,30.10
2018-02-09T22:13:49.299Z,28.60
2018-02-09T22:16:27.686Z,27.20
2018-02-09T22:19:07.295Z,28.00
2018-02-09T22:21:45.976Z,28.00
2018-02-09T22:24:24.493Z,29.60
2018-02-09T22:27:03.974Z,30.20
2018-02-09T22:29:42.686Z,30.40
2018-02-09T22:32:21.284Z,29.40
2018-02-09T22:34:58.755Z,31.00
2018-02-09T22:37:38.327Z,31.10
2018-02-09T22:40:16.836Z,29.10
2018-02-09T22:42:56.332Z,29.30
2018-02-09T22:45:37.935Z,28.20
2018-02-09T22:48:16.412Z,28.20
2018-02-09T22:50:54.891Z,30.40
2018-02-09T22:53:32.416Z,27.20
2018-02-09T22:56:10.834Z,29.10
2018-02-09T22:58:49.245Z,30.40
2018-02-09T23:01:27.850Z,30.50
2018-02-09T23:04:06.314Z,28.90
2018-02-09T23:06:44.889Z,28.90
2018-02-09T23:09:23.367Z,29.30
2018-02-09T23:12:01.770Z,31.00
2018-02-09T23:14:40.232Z,29.50
2018-02-09T23:17:18.810Z,29.40
2018-02-09T23:19:57.170Z,28.80
2018-02-09T23:22:34.538Z,29.30
2018-02-09T23:25:13.058Z,28.80
2018-02-09T23:27:51.597Z,29.50
2018-02-09T23:30:30.207Z,29.50
2018-02-09T23:33:08.707Z,29.80
2018-02-09T23:35:47.317Z,31.90
2018-02-09T23:38:24.869Z,30.90
2018-02-09T23:41:03.481Z,31.50
2018-02-09T23:43:41.902Z,32.50
2018-02-09T23:46:21.735Z,31.20
2018-02-09T23:49:00.103Z,30.10
2018-02-09T23:51:38.643Z,30.60
2018-02-09T23:54:17.923Z,32.20
2018-02-09T23:56:57.549Z,31.90
2018-02-09T23:59:36.150Z,34.30
